sensor_id;sensor_type;location;lat;lon;timestamp;P1;durP1;ratioP1;P2;durP2;ratioP2
19617;SDS011;9956;51.006;13.670;2022-08-03T00:04:28;5.53;;;3.60;;
19617;SDS011;9956;51.006;13.670;2022-08-03T00:09:29;3.55;;;3.25;;
19617;SDS011;9956;51.006;13.670;2022-08-03T00:14:30;4.25;;;3.85;;
19617;SDS011;9956;51.006;13.670;2022-08-03T00:19:30;3.97;;;3.58;;
19617;SDS011;9956;51.006;13.670;2022-08-03T00:24:31;4.45;;;3.25;;
19617;SDS011;9956;51.006;13.670;2022-08-03T00:29:31;3.72;;;3.42;;
19617;SDS011;9956;51.006;13.670;2022-08-03T00:34:31;7.68;;;3.50;;
19617;SDS011;9956;51.006;13.670;2022-08-03T00:39:32;6.30;;;3.42;;
19617;SDS011;9956;51.006;13.670;2022-08-03T00:44:38;5.40;;;3.88;;
19617;SDS011;9956;51.006;13.670;2022-08-03T00:49:40;5.97;;;4.15;;
19617;SDS011;9956;51.006;13.670;2022-08-03T00:54:43;4.50;;;3.88;;
19617;SDS011;9956;51.006;13.670;2022-08-03T00:59:44;4.05;;;3.70;;
19617;SDS011;9956;51.006;13.670;2022-08-03T01:04:44;4.35;;;3.85;;
19617;SDS011;9956;51.006;13.670;2022-08-03T01:09:46;4.32;;;3.80;;
19617;SDS011;9956;51.006;13.670;2022-08-03T01:15:09;4.13;;;3.83;;
19617;SDS011;9956;51.006;13.670;2022-08-03T01:20:15;4.38;;;3.60;;
19617;SDS011;9956;51.006;13.670;2022-08-03T01:30:23;3.85;;;3.45;;
19617;SDS011;9956;51.006;13.670;2022-08-03T01:35:40;4.18;;;3.53;;
19617;SDS011;9956;51.006;13.670;2022-08-03T01:40:42;4.80;;;4.32;;
19617;SDS011;9956;51.006;13.670;2022-08-03T01:45:43;4.50;;;4.00;;
19617;SDS011;9956;51.006;13.670;2022-08-03T01:50:44;5.10;;;4.68;;
19617;SDS011;9956;51.006;13.670;2022-08-03T01:55:46;4.53;;;4.13;;
19617;SDS011;9956;51.006;13.670;2022-08-03T02:00:48;4.20;;;3.90;;
19617;SDS011;9956;51.006;13.670;2022-08-03T02:05:49;5.05;;;4.60;;
19617;SDS011;9956;51.006;13.670;2022-08-03T02:10:51;6.13;;;4.40;;
19617;SDS011;9956;51.006;13.670;2022-08-03T02:15:54;5.90;;;4.30;;
19617;SDS011;9956;51.006;13.670;2022-08-03T02:20:56;4.88;;;4.47;;
19617;SDS011;9956;51.006;13.670;2022-08-03T02:25:59;5.80;;;4.07;;
19617;SDS011;9956;51.006;13.670;2022-08-03T02:31:04;4.53;;;4.13;;
19617;SDS011;9956;51.006;13.670;2022-08-03T02:36:06;4.82;;;4.20;;
19617;SDS011;9956;51.006;13.670;2022-08-03T02:41:08;5.07;;;4.68;;
19617;SDS011;9956;51.006;13.670;2022-08-03T02:46:14;4.70;;;4.30;;
19617;SDS011;9956;51.006;13.670;2022-08-03T02:51:17;6.00;;;4.47;;
19617;SDS011;9956;51.006;13.670;2022-08-03T02:56:18;4.47;;;4.18;;
19617;SDS011;9956;51.006;13.670;2022-08-03T03:01:20;4.82;;;4.43;;
19617;SDS011;9956;51.006;13.670;2022-08-03T03:06:21;4.93;;;4.40;;
19617;SDS011;9956;51.006;13.670;2022-08-03T03:11:23;5.45;;;4.45;;
19617;SDS011;9956;51.006;13.670;2022-08-03T03:16:25;5.00;;;4.35;;
19617;SDS011;9956;51.006;13.670;2022-08-03T03:21:26;4.70;;;4.32;;
19617;SDS011;9956;51.006;13.670;2022-08-03T03:26:28;5.05;;;4.55;;
19617;SDS011;9956;51.006;13.670;2022-08-03T03:31:28;4.85;;;3.92;;
19617;SDS011;9956;51.006;13.670;2022-08-03T03:36:29;5.18;;;4.78;;
19617;SDS011;9956;51.006;13.670;2022-08-03T03:41:30;5.72;;;5.07;;
19617;SDS011;9956;51.006;13.670;2022-08-03T03:46:30;5.25;;;4.85;;
19617;SDS011;9956;51.006;13.670;2022-08-03T03:51:31;5.13;;;4.63;;
19617;SDS011;9956;51.006;13.670;2022-08-03T03:56:31;5.50;;;5.03;;
19617;SDS011;9956;51.006;13.670;2022-08-03T04:01:32;5.13;;;4.72;;
19617;SDS011;9956;51.006;13.670;2022-08-03T04:06:32;5.35;;;4.90;;
19617;SDS011;9956;51.006;13.670;2022-08-03T04:11:52;4.93;;;4.50;;
19617;SDS011;9956;51.006;13.670;2022-08-03T04:16:54;5.25;;;4.75;;
19617;SDS011;9956;51.006;13.670;2022-08-03T04:21:57;10.75;;;5.43;;
19617;SDS011;9956;51.006;13.670;2022-08-03T04:27:00;5.32;;;4.93;;
19617;SDS011;9956;51.006;13.670;2022-08-03T04:32:02;6.07;;;5.32;;
19617;SDS011;9956;51.006;13.670;2022-08-03T04:37:07;4.97;;;4.57;;
19617;SDS011;9956;51.006;13.670;2022-08-03T04:42:14;5.38;;;4.97;;
19617;SDS011;9956;51.006;13.670;2022-08-03T04:47:14;5.50;;;5.00;;
19617;SDS011;9956;51.006;13.670;2022-08-03T04:52:15;5.30;;;4.80;;
19617;SDS011;9956;51.006;13.670;2022-08-03T04:57:16;5.20;;;4.80;;
19617;SDS011;9956;51.006;13.670;2022-08-03T05:02:16;7.38;;;5.05;;
19617;SDS011;9956;51.006;13.670;2022-08-03T05:07:17;5.07;;;4.50;;
19617;SDS011;9956;51.006;13.670;2022-08-03T05:12:18;7.75;;;4.70;;
19617;SDS011;9956;51.006;13.670;2022-08-03T05:17:18;4.88;;;4.47;;
19617;SDS011;9956;51.006;13.670;2022-08-03T05:22:19;4.78;;;4.28;;
19617;SDS011;9956;51.006;13.670;2022-08-03T05:27:20;4.93;;;4.32;;
19617;SDS011;9956;51.006;13.670;2022-08-03T05:32:20;4.43;;;4.03;;
19617;SDS011;9956;51.006;13.670;2022-08-03T05:37:21;4.13;;;3.67;;
19617;SDS011;9956;51.006;13.670;2022-08-03T05:42:21;3.80;;;3.50;;
19617;SDS011;9956;51.006;13.670;2022-08-03T05:47:22;4.47;;;4.07;;
19617;SDS011;9956;51.006;13.670;2022-08-03T05:52:25;4.00;;;3.60;;
19617;SDS011;9956;51.006;13.670;2022-08-03T05:57:26;3.53;;;3.22;;
19617;SDS011;9956;51.006;13.670;2022-08-03T06:02:27;4.20;;;3.80;;
19617;SDS011;9956;51.006;13.670;2022-08-03T06:07:27;4.10;;;3.05;;
19617;SDS011;9956;51.006;13.670;2022-08-03T06:12:28;3.42;;;3.13;;
19617;SDS011;9956;51.006;13.670;2022-08-03T06:17:29;3.75;;;3.38;;
19617;SDS011;9956;51.006;13.670;2022-08-03T06:22:29;3.33;;;3.03;;
19617;SDS011;9956;51.006;13.670;2022-08-03T06:27:30;3.42;;;3.03;;
19617;SDS011;9956;51.006;13.670;2022-08-03T06:32:30;4.53;;;3.13;;
19617;SDS011;9956;51.006;13.670;2022-08-03T06:37:31;4.43;;;3.28;;
19617;SDS011;9956;51.006;13.670;2022-08-03T06:42:31;3.85;;;3.17;;
19617;SDS011;9956;51.006;13.670;2022-08-03T06:47:31;5.15;;;3.03;;
19617;SDS011;9956;51.006;13.670;2022-08-03T06:52:32;4.72;;;3.28;;
19617;SDS011;9956;51.006;13.670;2022-08-03T06:57:32;3.30;;;2.72;;
19617;SDS011;9956;51.006;13.670;2022-08-03T07:02:33;3.03;;;2.67;;
19617;SDS011;9956;51.006;13.670;2022-08-03T07:07:33;3.90;;;2.70;;
19617;SDS011;9956;51.006;13.670;2022-08-03T07:12:34;3.00;;;2.50;;
19617;SDS011;9956;51.006;13.670;2022-08-03T07:17:35;4.75;;;2.28;;
19617;SDS011;9956;51.006;13.670;2022-08-03T07:22:36;5.15;;;2.78;;
19617;SDS011;9956;51.006;13.670;2022-08-03T07:27:36;4.68;;;2.60;;
19617;SDS011;9956;51.006;13.670;2022-08-03T07:32:37;4.25;;;2.65;;
19617;SDS011;9956;51.006;13.670;2022-08-03T07:43:41;5.18;;;2.33;;
19617;SDS011;9956;51.006;13.670;2022-08-03T07:48:41;2.97;;;2.20;;
19617;SDS011;9956;51.006;13.670;2022-08-03T07:53:42;5.10;;;2.65;;
19617;SDS011;9956;51.006;13.670;2022-08-03T07:58:42;2.80;;;2.42;;
19617;SDS011;9956;51.006;13.670;2022-08-03T08:03:42;4.95;;;2.50;;
19617;SDS011;9956;51.006;13.670;2022-08-03T08:08:43;2.97;;;2.33;;
19617;SDS011;9956;51.006;13.670;2022-08-03T08:13:43;4.30;;;2.58;;
19617;SDS011;9956;51.006;13.670;2022-08-03T08:18:44;3.15;;;2.22;;
19617;SDS011;9956;51.006;13.670;2022-08-03T08:23:44;5.93;;;2.50;;
19617;SDS011;9956;51.006;13.670;2022-08-03T08:28:44;3.20;;;2.60;;
19617;SDS011;9956;51.006;13.670;2022-08-03T08:33:45;3.35;;;2.30;;
19617;SDS011;9956;51.006;13.670;2022-08-03T08:38:45;3.07;;;2.30;;
19617;SDS011;9956;51.006;13.670;2022-08-03T08:43:46;5.03;;;2.28;;
19617;SDS011;9956;51.006;13.670;2022-08-03T08:48:47;4.17;;;2.40;;
19617;SDS011;9956;51.006;13.670;2022-08-03T08:58:53;3.88;;;2.55;;
19617;SDS011;9956;51.006;13.670;2022-08-03T09:03:58;3.00;;;2.70;;
19617;SDS011;9956;51.006;13.670;2022-08-03T09:08:58;5.15;;;2.47;;
19617;SDS011;9956;51.006;13.670;2022-08-03T09:13:58;2.27;;;2.17;;
19617;SDS011;9956;51.006;13.670;2022-08-03T09:19:09;3.40;;;2.50;;
19617;SDS011;9956;51.006;13.670;2022-08-03T09:24:12;4.97;;;2.65;;
19617;SDS011;9956;51.006;13.670;2022-08-03T09:29:13;2.40;;;2.20;;
19617;SDS011;9956;51.006;13.670;2022-08-03T09:34:16;2.80;;;2.60;;
19617;SDS011;9956;51.006;13.670;2022-08-03T09:39:26;3.38;;;2.42;;
19617;SDS011;9956;51.006;13.670;2022-08-03T09:44:34;3.47;;;2.90;;
19617;SDS011;9956;51.006;13.670;2022-08-03T09:49:36;4.85;;;2.60;;
19617;SDS011;9956;51.006;13.670;2022-08-03T09:54:37;5.65;;;2.40;;
19617;SDS011;9956;51.006;13.670;2022-08-03T09:59:48;2.80;;;2.30;;
19617;SDS011;9956;51.006;13.670;2022-08-03T10:04:49;3.38;;;2.40;;
19617;SDS011;9956;51.006;13.670;2022-08-03T10:09:58;3.58;;;2.35;;
19617;SDS011;9956;51.006;13.670;2022-08-03T10:15:00;4.78;;;2.25;;
19617;SDS011;9956;51.006;13.670;2022-08-03T10:20:01;4.32;;;1.95;;
19617;SDS011;9956;51.006;13.670;2022-08-03T10:25:10;2.80;;;2.28;;
19617;SDS011;9956;51.006;13.670;2022-08-03T10:30:11;4.22;;;2.00;;
19617;SDS011;9956;51.006;13.670;2022-08-03T10:35:14;2.67;;;2.33;;
19617;SDS011;9956;51.006;13.670;2022-08-03T10:40:17;7.57;;;2.50;;
19617;SDS011;9956;51.006;13.670;2022-08-03T10:45:24;4.15;;;2.42;;
19617;SDS011;9956;51.006;13.670;2022-08-03T10:50:26;5.07;;;2.53;;
19617;SDS011;9956;51.006;13.670;2022-08-03T11:00:53;3.53;;;2.00;;
19617;SDS011;9956;51.006;13.670;2022-08-03T11:05:55;2.80;;;1.93;;
19617;SDS011;9956;51.006;13.670;2022-08-03T11:16:18;2.78;;;1.90;;
19617;SDS011;9956;51.006;13.670;2022-08-03T11:21:19;2.90;;;1.80;;
19617;SDS011;9956;51.006;13.670;2022-08-03T11:26:20;2.33;;;1.97;;
19617;SDS011;9956;51.006;13.670;2022-08-03T11:36:22;2.13;;;1.90;;
19617;SDS011;9956;51.006;13.670;2022-08-03T11:41:32;2.10;;;1.90;;
19617;SDS011;9956;51.006;13.670;2022-08-03T11:46:37;1.92;;;1.73;;
19617;SDS011;9956;51.006;13.670;2022-08-03T11:51:37;2.10;;;1.90;;
19617;SDS011;9956;51.006;13.670;2022-08-03T11:56:49;4.05;;;1.90;;
19617;SDS011;9956;51.006;13.670;2022-08-03T12:01:49;3.25;;;1.80;;
19617;SDS011;9956;51.006;13.670;2022-08-03T12:06:57;2.63;;;1.97;;
19617;SDS011;9956;51.006;13.670;2022-08-03T12:11:58;2.58;;;2.03;;
19617;SDS011;9956;51.006;13.670;2022-08-03T12:16:58;1.97;;;1.77;;
19617;SDS011;9956;51.006;13.670;2022-08-03T12:21:59;2.85;;;1.80;;
19617;SDS011;9956;51.006;13.670;2022-08-03T12:26:59;2.97;;;2.17;;
19617;SDS011;9956;51.006;13.670;2022-08-03T12:31:59;3.47;;;2.00;;
19617;SDS011;9956;51.006;13.670;2022-08-03T12:37:03;4.03;;;1.93;;
19617;SDS011;9956;51.006;13.670;2022-08-03T12:42:07;4.82;;;2.03;;
19617;SDS011;9956;51.006;13.670;2022-08-03T12:47:07;2.85;;;2.05;;
19617;SDS011;9956;51.006;13.670;2022-08-03T12:52:09;2.78;;;1.85;;
19617;SDS011;9956;51.006;13.670;2022-08-03T12:57:13;3.15;;;1.65;;
19617;SDS011;9956;51.006;13.670;2022-08-03T13:02:14;3.08;;;1.92;;
19617;SDS011;9956;51.006;13.670;2022-08-03T13:07:17;2.22;;;2.03;;
19617;SDS011;9956;51.006;13.670;2022-08-03T13:12:19;1.90;;;1.80;;
19617;SDS011;9956;51.006;13.670;2022-08-03T13:17:20;2.38;;;1.80;;
19617;SDS011;9956;51.006;13.670;2022-08-03T13:22:21;1.75;;;1.60;;
19617;SDS011;9956;51.006;13.670;2022-08-03T13:27:23;1.92;;;1.73;;
19617;SDS011;9956;51.006;13.670;2022-08-03T13:32:25;2.63;;;1.73;;
19617;SDS011;9956;51.006;13.670;2022-08-03T13:37:26;3.33;;;1.33;;
19617;SDS011;9956;51.006;13.670;2022-08-03T13:42:27;2.70;;;2.10;;
19617;SDS011;9956;51.006;13.670;2022-08-03T13:47:28;1.90;;;1.80;;
19617;SDS011;9956;51.006;13.670;2022-08-03T13:52:29;2.55;;;1.67;;
19617;SDS011;9956;51.006;13.670;2022-08-03T13:57:31;4.18;;;1.75;;
19617;SDS011;9956;51.006;13.670;2022-08-03T14:02:32;3.72;;;2.08;;
19617;SDS011;9956;51.006;13.670;2022-08-03T14:07:32;2.60;;;2.10;;
19617;SDS011;9956;51.006;13.670;2022-08-03T14:12:33;2.70;;;2.08;;
19617;SDS011;9956;51.006;13.670;2022-08-03T14:17:34;4.10;;;1.80;;
19617;SDS011;9956;51.006;13.670;2022-08-03T14:22:34;3.95;;;1.85;;
19617;SDS011;9956;51.006;13.670;2022-08-03T14:27:35;2.40;;;1.73;;
19617;SDS011;9956;51.006;13.670;2022-08-03T14:32:36;2.28;;;1.80;;
19617;SDS011;9956;51.006;13.670;2022-08-03T14:37:36;2.93;;;1.90;;
19617;SDS011;9956;51.006;13.670;2022-08-03T14:42:36;1.50;;;1.40;;
19617;SDS011;9956;51.006;13.670;2022-08-03T14:47:37;3.03;;;1.77;;
19617;SDS011;9956;51.006;13.670;2022-08-03T14:52:38;3.75;;;1.98;;
19617;SDS011;9956;51.006;13.670;2022-08-03T14:57:38;4.30;;;1.83;;
19617;SDS011;9956;51.006;13.670;2022-08-03T15:02:39;2.10;;;1.80;;
19617;SDS011;9956;51.006;13.670;2022-08-03T15:07:39;3.97;;;1.80;;
19617;SDS011;9956;51.006;13.670;2022-08-03T15:12:40;1.73;;;1.63;;
19617;SDS011;9956;51.006;13.670;2022-08-03T15:17:40;2.70;;;1.70;;
19617;SDS011;9956;51.006;13.670;2022-08-03T15:22:41;3.92;;;1.80;;
19617;SDS011;9956;51.006;13.670;2022-08-03T15:27:41;3.50;;;1.80;;
19617;SDS011;9956;51.006;13.670;2022-08-03T15:32:41;3.50;;;1.70;;
19617;SDS011;9956;51.006;13.670;2022-08-03T15:37:42;2.77;;;1.87;;
19617;SDS011;9956;51.006;13.670;2022-08-03T15:42:42;2.87;;;1.93;;
19617;SDS011;9956;51.006;13.670;2022-08-03T15:47:42;5.73;;;1.93;;
19617;SDS011;9956;51.006;13.670;2022-08-03T15:52:43;3.33;;;1.70;;
19617;SDS011;9956;51.006;13.670;2022-08-03T15:57:43;2.30;;;2.07;;
19617;SDS011;9956;51.006;13.670;2022-08-03T16:02:44;2.10;;;1.90;;
19617;SDS011;9956;51.006;13.670;2022-08-03T16:07:44;1.87;;;1.77;;
19617;SDS011;9956;51.006;13.670;2022-08-03T16:12:53;3.58;;;1.88;;
19617;SDS011;9956;51.006;13.670;2022-08-03T16:17:53;2.25;;;1.50;;
19617;SDS011;9956;51.006;13.670;2022-08-03T16:22:54;2.65;;;1.63;;
19617;SDS011;9956;51.006;13.670;2022-08-03T16:27:54;1.77;;;1.40;;
19617;SDS011;9956;51.006;13.670;2022-08-03T16:32:54;2.10;;;1.90;;
19617;SDS011;9956;51.006;13.670;2022-08-03T16:37:55;2.10;;;1.67;;
19617;SDS011;9956;51.006;13.670;2022-08-03T16:42:55;1.95;;;1.83;;
19617;SDS011;9956;51.006;13.670;2022-08-03T16:47:56;2.33;;;2.13;;
19617;SDS011;9956;51.006;13.670;2022-08-03T16:52:56;3.17;;;1.90;;
19617;SDS011;9956;51.006;13.670;2022-08-03T16:57:57;4.40;;;2.07;;
19617;SDS011;9956;51.006;13.670;2022-08-03T17:03:01;2.00;;;1.80;;
19617;SDS011;9956;51.006;13.670;2022-08-03T17:08:03;1.95;;;1.85;;
19617;SDS011;9956;51.006;13.670;2022-08-03T17:13:03;2.85;;;1.80;;
19617;SDS011;9956;51.006;13.670;2022-08-03T17:18:04;3.40;;;2.00;;
19617;SDS011;9956;51.006;13.670;2022-08-03T17:23:26;2.17;;;1.80;;
19617;SDS011;9956;51.006;13.670;2022-08-03T17:28:44;4.10;;;1.67;;
19617;SDS011;9956;51.006;13.670;2022-08-03T17:33:46;2.47;;;1.92;;
19617;SDS011;9956;51.006;13.670;2022-08-03T17:38:49;4.05;;;1.92;;
19617;SDS011;9956;51.006;13.670;2022-08-03T17:43:52;2.58;;;1.95;;
19617;SDS011;9956;51.006;13.670;2022-08-03T17:48:52;2.72;;;2.08;;
19617;SDS011;9956;51.006;13.670;2022-08-03T18:04:26;2.30;;;1.88;;
19617;SDS011;9956;51.006;13.670;2022-08-03T18:09:27;4.63;;;2.08;;
19617;SDS011;9956;51.006;13.670;2022-08-03T18:19:48;2.70;;;1.95;;
19617;SDS011;9956;51.006;13.670;2022-08-03T18:24:48;2.58;;;1.73;;
19617;SDS011;9956;51.006;13.670;2022-08-03T18:29:49;2.65;;;1.98;;
19617;SDS011;9956;51.006;13.670;2022-08-03T18:34:50;1.98;;;1.77;;
19617;SDS011;9956;51.006;13.670;2022-08-03T18:39:53;2.05;;;1.80;;
19617;SDS011;9956;51.006;13.670;2022-08-03T18:44:55;3.88;;;1.98;;
19617;SDS011;9956;51.006;13.670;2022-08-03T18:49:58;3.50;;;1.83;;
19617;SDS011;9956;51.006;13.670;2022-08-03T18:55:11;3.15;;;2.10;;
19617;SDS011;9956;51.006;13.670;2022-08-03T19:00:14;1.88;;;1.77;;
19617;SDS011;9956;51.006;13.670;2022-08-03T19:05:17;3.30;;;2.03;;
19617;SDS011;9956;51.006;13.670;2022-08-03T19:10:21;4.85;;;1.83;;
19617;SDS011;9956;51.006;13.670;2022-08-03T19:15:26;2.40;;;2.20;;
19617;SDS011;9956;51.006;13.670;2022-08-03T19:20:28;2.00;;;1.90;;
19617;SDS011;9956;51.006;13.670;2022-08-03T19:25:30;4.03;;;2.50;;
19617;SDS011;9956;51.006;13.670;2022-08-03T19:30:32;2.78;;;2.10;;
19617;SDS011;9956;51.006;13.670;2022-08-03T19:35:39;2.97;;;2.08;;
19617;SDS011;9956;51.006;13.670;2022-08-03T19:40:43;3.10;;;2.30;;
19617;SDS011;9956;51.006;13.670;2022-08-03T19:45:44;3.00;;;2.47;;
19617;SDS011;9956;51.006;13.670;2022-08-03T19:50:45;4.10;;;2.38;;
19617;SDS011;9956;51.006;13.670;2022-08-03T19:55:47;3.53;;;2.50;;
19617;SDS011;9956;51.006;13.670;2022-08-03T20:00:48;9.80;;;2.80;;
19617;SDS011;9956;51.006;13.670;2022-08-03T20:05:49;5.13;;;2.53;;
19617;SDS011;9956;51.006;13.670;2022-08-03T20:10:49;3.08;;;2.30;;
19617;SDS011;9956;51.006;13.670;2022-08-03T20:15:53;4.03;;;2.70;;
19617;SDS011;9956;51.006;13.670;2022-08-03T20:20:53;2.58;;;2.38;;
19617;SDS011;9956;51.006;13.670;2022-08-03T20:25:56;2.67;;;2.47;;
19617;SDS011;9956;51.006;13.670;2022-08-03T20:30:58;2.83;;;2.63;;
19617;SDS011;9956;51.006;13.670;2022-08-03T20:35:59;5.38;;;3.03;;
19617;SDS011;9956;51.006;13.670;2022-08-03T20:41:00;4.22;;;2.83;;
19617;SDS011;9956;51.006;13.670;2022-08-03T20:46:00;3.33;;;3.03;;
19617;SDS011;9956;51.006;13.670;2022-08-03T20:51:02;4.28;;;2.92;;
19617;SDS011;9956;51.006;13.670;2022-08-03T20:56:03;4.60;;;3.20;;
19617;SDS011;9956;51.006;13.670;2022-08-03T21:01:04;5.28;;;3.50;;
19617;SDS011;9956;51.006;13.670;2022-08-03T21:06:16;4.25;;;3.28;;
19617;SDS011;9956;51.006;13.670;2022-08-03T21:11:18;5.22;;;2.90;;
19617;SDS011;9956;51.006;13.670;2022-08-03T21:16:39;4.07;;;2.65;;
19617;SDS011;9956;51.006;13.670;2022-08-03T21:21:44;6.60;;;2.97;;
19617;SDS011;9956;51.006;13.670;2022-08-03T21:26:46;3.53;;;3.08;;
19617;SDS011;9956;51.006;13.670;2022-08-03T21:31:47;7.25;;;3.20;;
19617;SDS011;9956;51.006;13.670;2022-08-03T21:36:48;3.40;;;3.10;;
19617;SDS011;9956;51.006;13.670;2022-08-03T21:41:48;6.70;;;3.60;;
19617;SDS011;9956;51.006;13.670;2022-08-03T21:46:49;3.25;;;2.95;;
19617;SDS011;9956;51.006;13.670;2022-08-03T21:51:52;3.95;;;3.17;;
19617;SDS011;9956;51.006;13.670;2022-08-03T21:56:53;5.35;;;2.92;;
19617;SDS011;9956;51.006;13.670;2022-08-03T22:01:53;8.40;;;3.42;;
19617;SDS011;9956;51.006;13.670;2022-08-03T22:06:54;4.85;;;3.47;;
19617;SDS011;9956;51.006;13.670;2022-08-03T22:11:54;5.15;;;3.53;;
19617;SDS011;9956;51.006;13.670;2022-08-03T22:16:55;6.47;;;3.30;;
19617;SDS011;9956;51.006;13.670;2022-08-03T22:21:55;4.40;;;3.38;;
19617;SDS011;9956;51.006;13.670;2022-08-03T22:26:58;5.05;;;3.60;;
19617;SDS011;9956;51.006;13.670;2022-08-03T22:32:18;4.38;;;3.45;;
19617;SDS011;9956;51.006;13.670;2022-08-03T22:37:19;6.95;;;3.60;;
19617;SDS011;9956;51.006;13.670;2022-08-03T22:42:21;4.40;;;3.58;;
19617;SDS011;9956;51.006;13.670;2022-08-03T22:47:23;4.03;;;3.65;;
19617;SDS011;9956;51.006;13.670;2022-08-03T22:52:23;4.93;;;3.47;;
19617;SDS011;9956;51.006;13.670;2022-08-03T22:57:24;5.20;;;3.90;;
19617;SDS011;9956;51.006;13.670;2022-08-03T23:02:24;5.65;;;3.88;;
19617;SDS011;9956;51.006;13.670;2022-08-03T23:07:29;6.82;;;4.00;;
19617;SDS011;9956;51.006;13.670;2022-08-03T23:12:35;4.30;;;3.45;;
19617;SDS011;9956;51.006;13.670;2022-08-03T23:17:49;4.00;;;3.58;;
19617;SDS011;9956;51.006;13.670;2022-08-03T23:22:51;3.90;;;3.60;;
19617;SDS011;9956;51.006;13.670;2022-08-03T23:27:53;5.88;;;4.22;;
19617;SDS011;9956;51.006;13.670;2022-08-03T23:32:54;4.43;;;4.03;;
19617;SDS011;9956;51.006;13.670;2022-08-03T23:37:55;4.80;;;3.92;;
19617;SDS011;9956;51.006;13.670;2022-08-03T23:42:56;4.60;;;3.80;;
19617;SDS011;9956;51.006;13.670;2022-08-03T23:47:57;3.78;;;3.40;;
